sensor_id;sensor_type;location;lat;lon;timestamp;P1;durP1;ratioP1;P2;durP2;ratioP2
39370;SDS011;25099;51.946;4.838;2023-04-12T00:02:03;10.48;;;2.85;;
39370;SDS011;25099;51.946;4.838;2023-04-12T00:04:30;7.05;;;2.17;;
39370;SDS011;25099;51.946;4.838;2023-04-12T00:06:58;10.18;;;2.97;;
39370;SDS011;25099;51.946;4.838;2023-04-12T00:09:28;5.72;;;2.60;;
39370;SDS011;25099;51.946;4.838;2023-04-12T00:11:59;2.85;;;1.90;;
39370;SDS011;25099;51.946;4.838;2023-04-12T00:14:25;4.18;;;2.10;;
39370;SDS011;25099;51.946;4.838;2023-04-12T00:17:00;7.32;;;2.38;;
39370;SDS011;25099;51.946;4.838;2023-04-12T00:19:37;4.53;;;2.15;;
39370;SDS011;25099;51.946;4.838;2023-04-12T00:22:10;6.07;;;2.20;;
39370;SDS011;25099;51.946;4.838;2023-04-12T00:24:41;5.70;;;1.80;;
39370;SDS011;25099;51.946;4.838;2023-04-12T00:27:09;7.35;;;2.08;;
39370;SDS011;25099;51.946;4.838;2023-04-12T00:29:35;3.92;;;1.80;;
39370;SDS011;25099;51.946;4.838;2023-04-12T00:32:07;4.80;;;2.08;;
39370;SDS011;25099;51.946;4.838;2023-04-12T00:34:32;5.55;;;1.70;;
39370;SDS011;25099;51.946;4.838;2023-04-12T00:36:58;5.90;;;1.73;;
39370;SDS011;25099;51.946;4.838;2023-04-12T00:39:25;6.47;;;1.52;;
39370;SDS011;25099;51.946;4.838;2023-04-12T00:42:03;2.58;;;1.40;;
39370;SDS011;25099;51.946;4.838;2023-04-12T00:44:32;5.47;;;1.92;;
39370;SDS011;25099;51.946;4.838;2023-04-12T00:46:58;4.88;;;1.25;;
39370;SDS011;25099;51.946;4.838;2023-04-12T00:49:25;6.75;;;1.33;;
39370;SDS011;25099;51.946;4.838;2023-04-12T00:52:04;4.35;;;1.13;;
39370;SDS011;25099;51.946;4.838;2023-04-12T00:54:32;2.10;;;1.17;;
39370;SDS011;25099;51.946;4.838;2023-04-12T00:57:11;2.28;;;1.17;;
39370;SDS011;25099;51.946;4.838;2023-04-12T00:59:50;3.88;;;1.55;;
39370;SDS011;25099;51.946;4.838;2023-04-12T01:02:22;4.95;;;1.10;;
39370;SDS011;25099;51.946;4.838;2023-04-12T01:04:47;3.70;;;1.40;;
39370;SDS011;25099;51.946;4.838;2023-04-12T01:15:20;5.47;;;1.10;;
39370;SDS011;25099;51.946;4.838;2023-04-12T01:28:49;2.78;;;1.60;;
39370;SDS011;25099;51.946;4.838;2023-04-12T01:31:16;4.80;;;1.00;;
39370;SDS011;25099;51.946;4.838;2023-04-12T01:33:44;3.78;;;1.17;;
39370;SDS011;25099;51.946;4.838;2023-04-12T01:36:12;3.92;;;1.27;;
39370;SDS011;25099;51.946;4.838;2023-04-12T01:38:40;2.05;;;1.02;;
39370;SDS011;25099;51.946;4.838;2023-04-12T01:41:07;2.28;;;0.73;;
39370;SDS011;25099;51.946;4.838;2023-04-12T01:43:38;5.25;;;1.33;;
39370;SDS011;25099;51.946;4.838;2023-04-12T01:46:08;3.20;;;1.10;;
39370;SDS011;25099;51.946;4.838;2023-04-12T01:48:35;3.72;;;1.10;;
39370;SDS011;25099;51.946;4.838;2023-04-12T01:51:05;2.63;;;1.17;;
39370;SDS011;25099;51.946;4.838;2023-04-12T01:53:56;5.45;;;1.20;;
39370;SDS011;25099;51.946;4.838;2023-04-12T01:56:27;3.60;;;1.65;;
39370;SDS011;25099;51.946;4.838;2023-04-12T01:58:55;2.40;;;1.02;;
39370;SDS011;25099;51.946;4.838;2023-04-12T02:01:21;3.05;;;1.30;;
39370;SDS011;25099;51.946;4.838;2023-04-12T02:03:49;2.92;;;1.13;;
39370;SDS011;25099;51.946;4.838;2023-04-12T02:06:18;2.83;;;1.08;;
39370;SDS011;25099;51.946;4.838;2023-04-12T02:08:46;2.00;;;1.10;;
39370;SDS011;25099;51.946;4.838;2023-04-12T02:11:12;1.77;;;0.98;;
39370;SDS011;25099;51.946;4.838;2023-04-12T02:13:38;7.32;;;1.60;;
39370;SDS011;25099;51.946;4.838;2023-04-12T02:16:04;3.40;;;1.23;;
39370;SDS011;25099;51.946;4.838;2023-04-12T02:18:31;2.60;;;1.30;;
39370;SDS011;25099;51.946;4.838;2023-04-12T02:20:59;4.13;;;1.38;;
39370;SDS011;25099;51.946;4.838;2023-04-12T02:23:25;5.25;;;1.42;;
39370;SDS011;25099;51.946;4.838;2023-04-12T02:25:51;3.33;;;1.20;;
39370;SDS011;25099;51.946;4.838;2023-04-12T02:28:16;2.30;;;1.08;;
39370;SDS011;25099;51.946;4.838;2023-04-12T02:30:42;2.60;;;1.27;;
39370;SDS011;25099;51.946;4.838;2023-04-12T02:33:07;2.55;;;1.40;;
39370;SDS011;25099;51.946;4.838;2023-04-12T02:35:33;2.20;;;1.17;;
39370;SDS011;25099;51.946;4.838;2023-04-12T02:38:03;2.40;;;1.50;;
39370;SDS011;25099;51.946;4.838;2023-04-12T02:40:32;4.95;;;1.35;;
39370;SDS011;25099;51.946;4.838;2023-04-12T02:42:58;4.60;;;1.63;;
39370;SDS011;25099;51.946;4.838;2023-04-12T02:45:24;4.38;;;1.65;;
39370;SDS011;25099;51.946;4.838;2023-04-12T02:47:50;2.92;;;1.45;;
39370;SDS011;25099;51.946;4.838;2023-04-12T02:50:15;3.92;;;1.30;;
39370;SDS011;25099;51.946;4.838;2023-04-12T02:52:41;2.70;;;1.20;;
39370;SDS011;25099;51.946;4.838;2023-04-12T02:55:07;4.55;;;1.88;;
39370;SDS011;25099;51.946;4.838;2023-04-12T02:57:32;3.95;;;1.27;;
39370;SDS011;25099;51.946;4.838;2023-04-12T02:59:58;5.18;;;1.33;;
39370;SDS011;25099;51.946;4.838;2023-04-12T03:02:24;2.97;;;1.33;;
39370;SDS011;25099;51.946;4.838;2023-04-12T03:04:49;4.32;;;1.40;;
39370;SDS011;25099;51.946;4.838;2023-04-12T03:07:15;4.18;;;1.58;;
39370;SDS011;25099;51.946;4.838;2023-04-12T03:09:43;5.45;;;1.20;;
39370;SDS011;25099;51.946;4.838;2023-04-12T03:12:09;2.75;;;1.25;;
39370;SDS011;25099;51.946;4.838;2023-04-12T03:14:34;2.85;;;1.30;;
39370;SDS011;25099;51.946;4.838;2023-04-12T03:17:00;3.03;;;1.67;;
39370;SDS011;25099;51.946;4.838;2023-04-12T03:19:26;2.25;;;1.40;;
39370;SDS011;25099;51.946;4.838;2023-04-12T03:21:52;3.60;;;1.50;;
39370;SDS011;25099;51.946;4.838;2023-04-12T03:24:18;3.88;;;1.20;;
39370;SDS011;25099;51.946;4.838;2023-04-12T03:26:44;4.47;;;1.08;;
39370;SDS011;25099;51.946;4.838;2023-04-12T03:29:10;2.10;;;1.20;;
39370;SDS011;25099;51.946;4.838;2023-04-12T03:31:36;7.70;;;2.70;;
39370;SDS011;25099;51.946;4.838;2023-04-12T03:34:01;4.22;;;2.20;;
39370;SDS011;25099;51.946;4.838;2023-04-12T03:36:28;5.88;;;1.50;;
39370;SDS011;25099;51.946;4.838;2023-04-12T03:38:53;4.45;;;1.50;;
39370;SDS011;25099;51.946;4.838;2023-04-12T03:41:23;3.15;;;1.08;;
39370;SDS011;25099;51.946;4.838;2023-04-12T03:43:49;2.15;;;1.20;;
39370;SDS011;25099;51.946;4.838;2023-04-12T03:46:15;3.33;;;1.30;;
39370;SDS011;25099;51.946;4.838;2023-04-12T03:48:41;5.30;;;1.42;;
39370;SDS011;25099;51.946;4.838;2023-04-12T03:51:07;3.03;;;1.13;;
39370;SDS011;25099;51.946;4.838;2023-04-12T03:53:36;4.75;;;1.45;;
39370;SDS011;25099;51.946;4.838;2023-04-12T03:56:02;3.10;;;1.67;;
39370;SDS011;25099;51.946;4.838;2023-04-12T03:58:28;3.03;;;1.15;;
39370;SDS011;25099;51.946;4.838;2023-04-12T04:00:53;3.42;;;1.10;;
39370;SDS011;25099;51.946;4.838;2023-04-12T04:03:19;3.28;;;1.20;;
39370;SDS011;25099;51.946;4.838;2023-04-12T04:05:46;2.80;;;1.02;;
39370;SDS011;25099;51.946;4.838;2023-04-12T04:08:12;3.13;;;1.40;;
39370;SDS011;25099;51.946;4.838;2023-04-12T04:10:38;2.65;;;1.25;;
39370;SDS011;25099;51.946;4.838;2023-04-12T04:13:03;4.50;;;1.13;;
39370;SDS011;25099;51.946;4.838;2023-04-12T04:15:29;4.65;;;1.20;;
39370;SDS011;25099;51.946;4.838;2023-04-12T04:17:54;2.95;;;1.30;;
39370;SDS011;25099;51.946;4.838;2023-04-12T04:20:20;2.50;;;1.33;;
39370;SDS011;25099;51.946;4.838;2023-04-12T04:22:46;3.65;;;1.30;;
39370;SDS011;25099;51.946;4.838;2023-04-12T04:25:12;2.35;;;1.20;;
39370;SDS011;25099;51.946;4.838;2023-04-12T04:27:39;1.08;;;0.98;;
39370;SDS011;25099;51.946;4.838;2023-04-12T04:30:05;1.52;;;1.10;;
39370;SDS011;25099;51.946;4.838;2023-04-12T04:32:32;1.55;;;0.95;;
39370;SDS011;25099;51.946;4.838;2023-04-12T04:34:57;1.95;;;1.27;;
39370;SDS011;25099;51.946;4.838;2023-04-12T04:37:23;1.88;;;1.10;;
39370;SDS011;25099;51.946;4.838;2023-04-12T04:39:50;2.05;;;1.20;;
39370;SDS011;25099;51.946;4.838;2023-04-12T04:42:16;2.00;;;1.00;;
39370;SDS011;25099;51.946;4.838;2023-04-12T04:44:41;2.08;;;1.00;;
39370;SDS011;25099;51.946;4.838;2023-04-12T04:47:07;2.80;;;1.13;;
39370;SDS011;25099;51.946;4.838;2023-04-12T04:49:33;2.00;;;1.02;;
39370;SDS011;25099;51.946;4.838;2023-04-12T04:52:00;4.43;;;1.73;;
39370;SDS011;25099;51.946;4.838;2023-04-12T04:54:26;2.47;;;1.33;;
39370;SDS011;25099;51.946;4.838;2023-04-12T04:56:52;1.23;;;1.10;;
39370;SDS011;25099;51.946;4.838;2023-04-12T04:59:19;1.85;;;1.20;;
39370;SDS011;25099;51.946;4.838;2023-04-12T05:01:44;2.53;;;1.55;;
39370;SDS011;25099;51.946;4.838;2023-04-12T05:04:10;1.77;;;1.23;;
39370;SDS011;25099;51.946;4.838;2023-04-12T05:06:35;3.85;;;1.38;;
39370;SDS011;25099;51.946;4.838;2023-04-12T05:09:01;2.42;;;1.50;;
39370;SDS011;25099;51.946;4.838;2023-04-12T05:11:27;2.47;;;1.67;;
39370;SDS011;25099;51.946;4.838;2023-04-12T05:13:53;2.88;;;1.65;;
39370;SDS011;25099;51.946;4.838;2023-04-12T05:16:19;2.28;;;1.60;;
39370;SDS011;25099;51.946;4.838;2023-04-12T05:18:44;2.90;;;1.30;;
39370;SDS011;25099;51.946;4.838;2023-04-12T05:21:10;1.73;;;1.60;;
39370;SDS011;25099;51.946;4.838;2023-04-12T05:23:36;2.85;;;1.70;;
39370;SDS011;25099;51.946;4.838;2023-04-12T05:26:06;2.55;;;1.65;;
39370;SDS011;25099;51.946;4.838;2023-04-12T05:28:32;2.75;;;1.80;;
39370;SDS011;25099;51.946;4.838;2023-04-12T05:30:58;3.97;;;1.98;;
39370;SDS011;25099;51.946;4.838;2023-04-12T05:33:23;3.72;;;1.95;;
39370;SDS011;25099;51.946;4.838;2023-04-12T05:35:49;2.50;;;1.90;;
39370;SDS011;25099;51.946;4.838;2023-04-12T05:38:15;2.03;;;1.92;;
39370;SDS011;25099;51.946;4.838;2023-04-12T05:40:41;3.53;;;2.17;;
39370;SDS011;25099;51.946;4.838;2023-04-12T05:43:08;3.15;;;2.33;;
39370;SDS011;25099;51.946;4.838;2023-04-12T05:45:37;3.72;;;2.50;;
39370;SDS011;25099;51.946;4.838;2023-04-12T05:48:05;3.17;;;2.55;;
39370;SDS011;25099;51.946;4.838;2023-04-12T05:50:31;3.65;;;2.95;;
39370;SDS011;25099;51.946;4.838;2023-04-12T05:52:58;4.90;;;2.90;;
39370;SDS011;25099;51.946;4.838;2023-04-12T05:55:25;3.78;;;3.05;;
39370;SDS011;25099;51.946;4.838;2023-04-12T05:57:51;3.80;;;2.90;;
39370;SDS011;25099;51.946;4.838;2023-04-12T06:00:16;9.10;;;3.50;;
39370;SDS011;25099;51.946;4.838;2023-04-12T06:02:44;4.55;;;3.25;;
39370;SDS011;25099;51.946;4.838;2023-04-12T06:05:10;3.97;;;3.45;;
39370;SDS011;25099;51.946;4.838;2023-04-12T06:07:37;8.32;;;3.65;;
39370;SDS011;25099;51.946;4.838;2023-04-12T06:10:03;8.02;;;3.60;;
39370;SDS011;25099;51.946;4.838;2023-04-12T06:12:31;7.32;;;4.28;;
39370;SDS011;25099;51.946;4.838;2023-04-12T06:14:57;8.23;;;3.38;;
39370;SDS011;25099;51.946;4.838;2023-04-12T06:17:22;9.10;;;4.63;;
39370;SDS011;25099;51.946;4.838;2023-04-12T06:19:48;8.43;;;4.18;;
39370;SDS011;25099;51.946;4.838;2023-04-12T06:22:14;13.07;;;3.90;;
39370;SDS011;25099;51.946;4.838;2023-04-12T06:24:40;7.30;;;3.88;;
39370;SDS011;25099;51.946;4.838;2023-04-12T06:27:05;12.73;;;4.20;;
39370;SDS011;25099;51.946;4.838;2023-04-12T06:29:31;8.38;;;3.67;;
39370;SDS011;25099;51.946;4.838;2023-04-12T06:31:57;6.00;;;3.53;;
39370;SDS011;25099;51.946;4.838;2023-04-12T06:34:22;11.45;;;3.75;;
39370;SDS011;25099;51.946;4.838;2023-04-12T06:36:48;12.98;;;3.80;;
39370;SDS011;25099;51.946;4.838;2023-04-12T06:39:14;17.48;;;4.80;;
39370;SDS011;25099;51.946;4.838;2023-04-12T06:41:40;13.25;;;4.20;;
39370;SDS011;25099;51.946;4.838;2023-04-12T06:44:07;15.93;;;4.00;;
39370;SDS011;25099;51.946;4.838;2023-04-12T06:46:34;12.88;;;4.13;;
39370;SDS011;25099;51.946;4.838;2023-04-12T06:48:59;16.00;;;4.00;;
39370;SDS011;25099;51.946;4.838;2023-04-12T06:51:25;8.45;;;3.08;;
39370;SDS011;25099;51.946;4.838;2023-04-12T06:54:13;13.60;;;3.25;;
39370;SDS011;25099;51.946;4.838;2023-04-12T06:56:39;14.13;;;3.63;;
39370;SDS011;25099;51.946;4.838;2023-04-12T06:59:05;13.02;;;3.80;;
39370;SDS011;25099;51.946;4.838;2023-04-12T07:01:30;12.90;;;2.95;;
39370;SDS011;25099;51.946;4.838;2023-04-12T07:03:56;18.48;;;4.00;;
39370;SDS011;25099;51.946;4.838;2023-04-12T07:06:21;14.13;;;3.35;;
39370;SDS011;25099;51.946;4.838;2023-04-12T07:08:47;18.42;;;3.08;;
39370;SDS011;25099;51.946;4.838;2023-04-12T07:11:13;15.55;;;3.40;;
39370;SDS011;25099;51.946;4.838;2023-04-12T07:13:39;13.55;;;3.28;;
39370;SDS011;25099;51.946;4.838;2023-04-12T07:16:05;22.80;;;4.13;;
39370;SDS011;25099;51.946;4.838;2023-04-12T07:18:30;19.58;;;4.60;;
39370;SDS011;25099;51.946;4.838;2023-04-12T07:20:57;25.40;;;3.60;;
39370;SDS011;25099;51.946;4.838;2023-04-12T07:23:22;20.90;;;3.67;;
39370;SDS011;25099;51.946;4.838;2023-04-12T07:25:49;14.00;;;3.03;;
39370;SDS011;25099;51.946;4.838;2023-04-12T07:28:15;15.98;;;3.35;;
39370;SDS011;25099;51.946;4.838;2023-04-12T07:30:41;33.17;;;4.38;;
39370;SDS011;25099;51.946;4.838;2023-04-12T07:33:07;22.85;;;4.38;;
39370;SDS011;25099;51.946;4.838;2023-04-12T07:35:32;24.10;;;3.60;;
39370;SDS011;25099;51.946;4.838;2023-04-12T07:37:58;31.52;;;5.38;;
39370;SDS011;25099;51.946;4.838;2023-04-12T07:40:25;25.90;;;4.47;;
39370;SDS011;25099;51.946;4.838;2023-04-12T07:42:51;14.77;;;3.50;;
39370;SDS011;25099;51.946;4.838;2023-04-12T07:45:17;29.27;;;4.50;;
39370;SDS011;25099;51.946;4.838;2023-04-12T07:47:43;24.20;;;4.07;;
39370;SDS011;25099;51.946;4.838;2023-04-12T07:50:09;24.35;;;3.72;;
39370;SDS011;25099;51.946;4.838;2023-04-12T07:52:35;26.80;;;3.97;;
39370;SDS011;25099;51.946;4.838;2023-04-12T07:55:01;25.40;;;4.28;;
39370;SDS011;25099;51.946;4.838;2023-04-12T07:57:26;25.17;;;4.10;;
39370;SDS011;25099;51.946;4.838;2023-04-12T07:59:52;17.52;;;3.40;;
39370;SDS011;25099;51.946;4.838;2023-04-12T08:02:17;20.35;;;3.97;;
39370;SDS011;25099;51.946;4.838;2023-04-12T08:04:52;30.08;;;4.45;;
39370;SDS011;25099;51.946;4.838;2023-04-12T08:07:18;22.83;;;3.95;;
39370;SDS011;25099;51.946;4.838;2023-04-12T08:09:46;24.33;;;4.78;;
39370;SDS011;25099;51.946;4.838;2023-04-12T08:12:13;28.60;;;5.35;;
39370;SDS011;25099;51.946;4.838;2023-04-12T08:14:42;27.83;;;3.63;;
39370;SDS011;25099;51.946;4.838;2023-04-12T08:17:15;25.60;;;3.83;;
39370;SDS011;25099;51.946;4.838;2023-04-12T08:19:58;27.48;;;4.70;;
39370;SDS011;25099;51.946;4.838;2023-04-12T08:22:24;21.50;;;3.83;;
39370;SDS011;25099;51.946;4.838;2023-04-12T08:24:50;24.05;;;4.47;;
39370;SDS011;25099;51.946;4.838;2023-04-12T08:27:15;12.80;;;3.33;;
39370;SDS011;25099;51.946;4.838;2023-04-12T08:29:41;28.38;;;3.83;;
39370;SDS011;25099;51.946;4.838;2023-04-12T08:32:15;17.38;;;3.25;;
39370;SDS011;25099;51.946;4.838;2023-04-12T08:34:51;22.77;;;4.30;;
39370;SDS011;25099;51.946;4.838;2023-04-12T08:37:25;19.08;;;3.50;;
39370;SDS011;25099;51.946;4.838;2023-04-12T08:40:06;21.40;;;3.60;;
39370;SDS011;25099;51.946;4.838;2023-04-12T08:42:33;26.50;;;3.55;;
39370;SDS011;25099;51.946;4.838;2023-04-12T08:45:17;21.52;;;3.55;;
39370;SDS011;25099;51.946;4.838;2023-04-12T08:48:03;21.63;;;4.43;;
39370;SDS011;25099;51.946;4.838;2023-04-12T08:50:29;13.18;;;2.97;;
39370;SDS011;25099;51.946;4.838;2023-04-12T08:53:01;20.48;;;3.42;;
39370;SDS011;25099;51.946;4.838;2023-04-12T08:55:36;28.90;;;3.80;;
39370;SDS011;25099;51.946;4.838;2023-04-12T09:00:53;29.13;;;3.78;;
39370;SDS011;25099;51.946;4.838;2023-04-12T09:03:26;17.85;;;3.50;;
39370;SDS011;25099;51.946;4.838;2023-04-12T09:05:53;27.23;;;3.33;;
39370;SDS011;25099;51.946;4.838;2023-04-12T09:08:22;17.33;;;3.38;;
39370;SDS011;25099;51.946;4.838;2023-04-12T09:10:49;30.38;;;3.83;;
39370;SDS011;25099;51.946;4.838;2023-04-12T09:13:33;22.42;;;4.60;;
39370;SDS011;25099;51.946;4.838;2023-04-12T09:16:00;19.00;;;3.05;;
39370;SDS011;25099;51.946;4.838;2023-04-12T09:18:27;17.95;;;3.33;;
39370;SDS011;25099;51.946;4.838;2023-04-12T09:21:05;22.88;;;3.55;;
39370;SDS011;25099;51.946;4.838;2023-04-12T09:23:32;15.05;;;3.70;;
39370;SDS011;25099;51.946;4.838;2023-04-12T09:26:00;20.60;;;3.78;;
39370;SDS011;25099;51.946;4.838;2023-04-12T09:28:26;24.23;;;3.60;;
39370;SDS011;25099;51.946;4.838;2023-04-12T09:30:53;18.98;;;3.42;;
39370;SDS011;25099;51.946;4.838;2023-04-12T09:33:20;21.35;;;3.67;;
39370;SDS011;25099;51.946;4.838;2023-04-12T09:35:48;27.50;;;3.88;;
39370;SDS011;25099;51.946;4.838;2023-04-12T09:38:14;29.55;;;3.97;;
39370;SDS011;25099;51.946;4.838;2023-04-12T09:40:42;24.15;;;3.70;;
39370;SDS011;25099;51.946;4.838;2023-04-12T09:43:08;26.92;;;4.72;;
39370;SDS011;25099;51.946;4.838;2023-04-12T09:45:34;21.65;;;3.40;;
39370;SDS011;25099;51.946;4.838;2023-04-12T09:48:04;27.00;;;4.10;;
39370;SDS011;25099;51.946;4.838;2023-04-12T09:50:31;22.70;;;3.70;;
39370;SDS011;25099;51.946;4.838;2023-04-12T09:52:57;20.08;;;4.05;;
39370;SDS011;25099;51.946;4.838;2023-04-12T09:55:27;24.45;;;3.92;;
39370;SDS011;25099;51.946;4.838;2023-04-12T10:00:28;21.52;;;2.88;;
39370;SDS011;25099;51.946;4.838;2023-04-12T10:02:55;25.17;;;4.28;;
39370;SDS011;25099;51.946;4.838;2023-04-12T10:05:24;26.10;;;4.28;;
39370;SDS011;25099;51.946;4.838;2023-04-12T10:07:50;16.15;;;4.28;;
39370;SDS011;25099;51.946;4.838;2023-04-12T10:10:25;19.83;;;3.80;;
39370;SDS011;25099;51.946;4.838;2023-04-12T10:12:51;30.55;;;4.10;;
39370;SDS011;25099;51.946;4.838;2023-04-12T10:15:17;29.77;;;4.45;;
39370;SDS011;25099;51.946;4.838;2023-04-12T10:18:00;24.38;;;3.35;;
39370;SDS011;25099;51.946;4.838;2023-04-12T10:20:26;29.83;;;4.43;;
39370;SDS011;25099;51.946;4.838;2023-04-12T10:23:08;22.83;;;4.10;;
39370;SDS011;25099;51.946;4.838;2023-04-12T10:25:35;23.80;;;4.07;;
39370;SDS011;25099;51.946;4.838;2023-04-12T10:28:22;15.25;;;3.50;;
39370;SDS011;25099;51.946;4.838;2023-04-12T10:30:57;14.27;;;3.30;;
39370;SDS011;25099;51.946;4.838;2023-04-12T10:33:29;20.63;;;3.40;;
39370;SDS011;25099;51.946;4.838;2023-04-12T10:36:08;10.98;;;2.58;;
39370;SDS011;25099;51.946;4.838;2023-04-12T10:41:34;17.45;;;3.00;;
39370;SDS011;25099;51.946;4.838;2023-04-12T10:44:24;20.63;;;4.13;;
39370;SDS011;25099;51.946;4.838;2023-04-12T10:50:36;7.25;;;2.47;;
39370;SDS011;25099;51.946;4.838;2023-04-12T10:53:19;14.55;;;2.42;;
39370;SDS011;25099;51.946;4.838;2023-04-12T10:56:51;18.17;;;2.78;;
39370;SDS011;25099;51.946;4.838;2023-04-12T10:59:08;13.73;;;2.67;;
39370;SDS011;25099;51.946;4.838;2023-04-12T11:02:07;13.93;;;2.63;;
39370;SDS011;25099;51.946;4.838;2023-04-12T11:07:38;9.48;;;2.05;;
39370;SDS011;25099;51.946;4.838;2023-04-12T11:10:11;11.05;;;2.72;;
39370;SDS011;25099;51.946;4.838;2023-04-12T11:13:08;12.82;;;2.20;;
39370;SDS011;25099;51.946;4.838;2023-04-12T11:15:38;7.97;;;1.90;;
39370;SDS011;25099;51.946;4.838;2023-04-12T11:18:33;9.35;;;2.25;;
39370;SDS011;25099;51.946;4.838;2023-04-12T11:21:10;9.27;;;1.80;;
39370;SDS011;25099;51.946;4.838;2023-04-12T11:23:45;12.07;;;2.35;;
39370;SDS011;25099;51.946;4.838;2023-04-12T11:29:14;11.30;;;2.00;;
39370;SDS011;25099;51.946;4.838;2023-04-12T11:32:23;10.95;;;1.20;;
39370;SDS011;25099;51.946;4.838;2023-04-12T11:37:54;7.03;;;1.40;;
39370;SDS011;25099;51.946;4.838;2023-04-12T11:52:54;6.70;;;2.00;;
39370;SDS011;25099;51.946;4.838;2023-04-12T11:56:13;7.75;;;1.83;;
39370;SDS011;25099;51.946;4.838;2023-04-12T12:07:50;4.20;;;1.10;;
39370;SDS011;25099;51.946;4.838;2023-04-12T12:32:29;5.80;;;1.38;;
39370;SDS011;25099;51.946;4.838;2023-04-12T12:35:36;9.30;;;1.92;;
39370;SDS011;25099;51.946;4.838;2023-04-12T12:38:19;16.17;;;2.30;;
39370;SDS011;25099;51.946;4.838;2023-04-12T12:40:55;9.88;;;1.60;;
39370;SDS011;25099;51.946;4.838;2023-04-12T12:43:32;10.18;;;2.45;;
39370;SDS011;25099;51.946;4.838;2023-04-12T12:45:58;3.70;;;1.33;;
39370;SDS011;25099;51.946;4.838;2023-04-12T12:48:42;8.60;;;1.77;;
39370;SDS011;25099;51.946;4.838;2023-04-12T12:51:20;3.47;;;1.08;;
39370;SDS011;25099;51.946;4.838;2023-04-12T12:53:46;5.07;;;1.38;;
39370;SDS011;25099;51.946;4.838;2023-04-12T12:56:15;4.93;;;1.73;;
39370;SDS011;25099;51.946;4.838;2023-04-12T12:58:43;5.28;;;1.58;;
39370;SDS011;25099;51.946;4.838;2023-04-12T13:04:17;6.13;;;1.33;;
39370;SDS011;25099;51.946;4.838;2023-04-12T13:07:01;20.15;;;2.58;;
39370;SDS011;25099;51.946;4.838;2023-04-12T13:09:48;9.77;;;1.98;;
39370;SDS011;25099;51.946;4.838;2023-04-12T13:16:15;7.93;;;1.80;;
39370;SDS011;25099;51.946;4.838;2023-04-12T13:21:43;5.78;;;1.40;;
39370;SDS011;25099;51.946;4.838;2023-04-12T13:36:28;3.60;;;1.17;;
39370;SDS011;25099;51.946;4.838;2023-04-12T13:39:12;9.25;;;1.67;;
39370;SDS011;25099;51.946;4.838;2023-04-12T13:41:37;4.35;;;1.48;;
39370;SDS011;25099;51.946;4.838;2023-04-12T13:44:15;4.00;;;1.40;;
39370;SDS011;25099;51.946;4.838;2023-04-12T13:53:05;4.13;;;0.80;;
39370;SDS011;25099;51.946;4.838;2023-04-12T13:58:41;6.70;;;1.30;;
39370;SDS011;25099;51.946;4.838;2023-04-12T14:01:22;3.92;;;1.08;;
39370;SDS011;25099;51.946;4.838;2023-04-12T14:10:02;5.90;;;0.73;;
39370;SDS011;25099;51.946;4.838;2023-04-12T14:12:46;4.90;;;1.17;;
39370;SDS011;25099;51.946;4.838;2023-04-12T14:15:26;4.35;;;1.58;;
39370;SDS011;25099;51.946;4.838;2023-04-12T14:20:36;6.35;;;1.55;;
39370;SDS011;25099;51.946;4.838;2023-04-12T14:23:03;2.70;;;0.80;;
39370;SDS011;25099;51.946;4.838;2023-04-12T14:25:29;2.70;;;0.73;;
39370;SDS011;25099;51.946;4.838;2023-04-12T14:31:03;2.95;;;0.73;;
39370;SDS011;25099;51.946;4.838;2023-04-12T14:33:45;2.22;;;0.40;;
39370;SDS011;25099;51.946;4.838;2023-04-12T14:39:04;1.27;;;0.30;;
39370;SDS011;25099;51.946;4.838;2023-04-12T14:41:42;1.05;;;0.40;;
39370;SDS011;25099;51.946;4.838;2023-04-12T14:47:08;5.00;;;1.70;;
39370;SDS011;25099;51.946;4.838;2023-04-12T14:49:34;4.95;;;0.95;;
39370;SDS011;25099;51.946;4.838;2023-04-12T14:52:16;6.13;;;2.85;;
39370;SDS011;25099;51.946;4.838;2023-04-12T15:09:31;3.00;;;0.90;;
39370;SDS011;25099;51.946;4.838;2023-04-12T15:12:15;6.70;;;1.55;;
39370;SDS011;25099;51.946;4.838;2023-04-12T15:17:30;4.45;;;1.35;;
39370;SDS011;25099;51.946;4.838;2023-04-12T15:19:58;2.80;;;0.60;;
39370;SDS011;25099;51.946;4.838;2023-04-12T15:22:47;3.00;;;0.70;;
39370;SDS011;25099;51.946;4.838;2023-04-12T15:28:06;4.65;;;0.70;;
39370;SDS011;25099;51.946;4.838;2023-04-12T15:30:46;2.97;;;1.20;;
39370;SDS011;25099;51.946;4.838;2023-04-12T15:36:23;6.28;;;1.27;;
39370;SDS011;25099;51.946;4.838;2023-04-12T15:39:15;4.20;;;0.90;;
39370;SDS011;25099;51.946;4.838;2023-04-12T15:41:42;2.78;;;1.10;;
39370;SDS011;25099;51.946;4.838;2023-04-12T15:44:08;3.58;;;0.90;;
39370;SDS011;25099;51.946;4.838;2023-04-12T15:46:52;6.68;;;1.55;;
39370;SDS011;25099;51.946;4.838;2023-04-12T15:51:58;4.20;;;0.80;;
39370;SDS011;25099;51.946;4.838;2023-04-12T15:54:32;8.35;;;2.53;;
39370;SDS011;25099;51.946;4.838;2023-04-12T15:57:05;7.75;;;2.90;;
39370;SDS011;25099;51.946;4.838;2023-04-12T15:59:34;3.13;;;0.70;;
39370;SDS011;25099;51.946;4.838;2023-04-12T16:02:15;7.40;;;1.55;;
39370;SDS011;25099;51.946;4.838;2023-04-12T16:04:59;6.38;;;1.52;;
39370;SDS011;25099;51.946;4.838;2023-04-12T16:07:25;11.10;;;1.67;;
39370;SDS011;25099;51.946;4.838;2023-04-12T16:12:31;3.38;;;0.90;;
39370;SDS011;25099;51.946;4.838;2023-04-12T16:15:10;4.35;;;1.83;;
39370;SDS011;25099;51.946;4.838;2023-04-12T16:17:36;8.25;;;1.63;;
39370;SDS011;25099;51.946;4.838;2023-04-12T16:20:01;5.20;;;1.08;;
39370;SDS011;25099;51.946;4.838;2023-04-12T16:22:29;3.75;;;0.98;;
39370;SDS011;25099;51.946;4.838;2023-04-12T16:24:55;6.00;;;1.20;;
39370;SDS011;25099;51.946;4.838;2023-04-12T16:27:22;12.45;;;1.85;;
39370;SDS011;25099;51.946;4.838;2023-04-12T16:29:53;8.75;;;1.20;;
39370;SDS011;25099;51.946;4.838;2023-04-12T16:32:28;6.68;;;1.65;;
39370;SDS011;25099;51.946;4.838;2023-04-12T16:34:54;12.23;;;4.05;;
39370;SDS011;25099;51.946;4.838;2023-04-12T16:37:28;6.82;;;2.50;;
39370;SDS011;25099;51.946;4.838;2023-04-12T16:40:10;4.78;;;1.52;;
39370;SDS011;25099;51.946;4.838;2023-04-12T16:42:47;6.70;;;1.08;;
39370;SDS011;25099;51.946;4.838;2023-04-12T16:45:13;14.95;;;2.45;;
39370;SDS011;25099;51.946;4.838;2023-04-12T16:47:39;8.93;;;1.70;;
39370;SDS011;25099;51.946;4.838;2023-04-12T16:50:06;4.63;;;1.40;;
39370;SDS011;25099;51.946;4.838;2023-04-12T16:52:33;9.25;;;1.90;;
39370;SDS011;25099;51.946;4.838;2023-04-12T16:55:25;7.30;;;1.60;;
39370;SDS011;25099;51.946;4.838;2023-04-12T16:58:00;9.35;;;1.83;;
39370;SDS011;25099;51.946;4.838;2023-04-12T17:00:25;8.88;;;1.63;;
39370;SDS011;25099;51.946;4.838;2023-04-12T17:03:11;9.80;;;1.20;;
39370;SDS011;25099;51.946;4.838;2023-04-12T17:05:51;8.65;;;1.75;;
39370;SDS011;25099;51.946;4.838;2023-04-12T17:08:17;6.78;;;1.52;;
39370;SDS011;25099;51.946;4.838;2023-04-12T17:10:57;7.88;;;1.63;;
39370;SDS011;25099;51.946;4.838;2023-04-12T17:15:57;3.88;;;1.10;;
39370;SDS011;25099;51.946;4.838;2023-04-12T17:18:44;4.70;;;1.23;;
39370;SDS011;25099;51.946;4.838;2023-04-12T17:21:25;4.90;;;1.50;;
39370;SDS011;25099;51.946;4.838;2023-04-12T17:26:50;9.10;;;1.40;;
39370;SDS011;25099;51.946;4.838;2023-04-12T17:29:16;5.45;;;1.10;;
39370;SDS011;25099;51.946;4.838;2023-04-12T17:31:54;3.63;;;1.17;;
39370;SDS011;25099;51.946;4.838;2023-04-12T17:34:20;5.60;;;2.45;;
39370;SDS011;25099;51.946;4.838;2023-04-12T17:37:03;4.93;;;1.20;;
39370;SDS011;25099;51.946;4.838;2023-04-12T17:39:29;8.70;;;1.55;;
39370;SDS011;25099;51.946;4.838;2023-04-12T17:42:01;5.20;;;1.35;;
39370;SDS011;25099;51.946;4.838;2023-04-12T17:44:27;4.38;;;1.13;;
39370;SDS011;25099;51.946;4.838;2023-04-12T17:50:16;8.00;;;1.55;;
39370;SDS011;25099;51.946;4.838;2023-04-12T17:53:00;4.90;;;1.15;;